createdAt,value
2017-11-11T00:00:39.333Z,7.18
2017-11-11T00:01:19.894Z,7.21
2017-11-11T00:02:00.462Z,7.15
2017-11-11T00:02:41.074Z,7.24
2017-11-11T00:03:21.713Z,7.29
2017-11-11T00:04:02.326Z,7.17
2017-11-11T00:04:42.934Z,7.23
2017-11-11T00:05:23.543Z,7.15
2017-11-11T00:06:04.223Z,7.13
2017-11-11T00:06:44.744Z,7.13
2017-11-11T00:07:25.354Z,7.13
2017-11-11T00:08:05.927Z,7.02
2017-11-11T00:08:46.493Z,7.05
2017-11-11T00:09:27.092Z,7.15
2017-11-11T00:10:07.725Z,7.06
2017-11-11T00:10:48.303Z,7.14
2017-11-11T00:11:28.899Z,7.2
2017-11-11T00:12:09.536Z,7.15
2017-11-11T00:12:50.561Z,7.24
2017-11-11T00:13:31.478Z,7.2
2017-11-11T00:14:12.031Z,7.21
2017-11-11T00:14:52.909Z,7.24
2017-11-11T00:15:33.609Z,7.17
2017-11-11T00:16:14.301Z,7.18
2017-11-11T00:16:54.920Z,7.21
2017-11-11T00:17:35.496Z,7.2
2017-11-11T00:18:16.254Z,7.23
2017-11-11T00:18:56.876Z,7.17
2017-11-11T00:19:37.480Z,7.17
2017-11-11T00:20:18.064Z,7.21
2017-11-11T00:20:58.726Z,7.17
2017-11-11T00:21:39.277Z,7.2
2017-11-11T00:22:19.862Z,7.2
2017-11-11T00:23:00.559Z,7.23
2017-11-11T00:23:41.195Z,7.15
2017-11-11T00:24:21.846Z,7.15
2017-11-11T00:25:02.478Z,7.07
2017-11-11T00:25:43.077Z,7.2
2017-11-11T00:26:23.663Z,7.18
2017-11-11T00:27:04.258Z,7.15
2017-11-11T00:27:44.855Z,7.13
2017-11-11T00:28:25.435Z,7.17
2017-11-11T00:29:06.026Z,7.15
2017-11-11T00:29:46.632Z,7.17
2017-11-11T00:30:27.246Z,7.13
2017-11-11T00:31:07.832Z,7.07
2017-11-11T00:31:48.568Z,7.11
2017-11-11T00:32:29.168Z,7.14
2017-11-11T00:33:09.760Z,7.11
2017-11-11T00:33:50.352Z,7.1
2017-11-11T00:34:30.937Z,7.11
2017-11-11T00:35:11.535Z,7.06
2017-11-11T00:35:52.135Z,7.1
2017-11-11T00:36:32.724Z,7.14
2017-11-11T00:37:13.307Z,7.14
2017-11-11T00:37:53.903Z,7.15
2017-11-11T00:38:34.489Z,7.14
2017-11-11T00:39:15.071Z,7.14
2017-11-11T00:39:55.659Z,7.24
2017-11-11T00:40:36.262Z,7.23
2017-11-11T00:41:16.881Z,7.21
2017-11-11T00:41:57.444Z,7.24
2017-11-11T00:42:38.059Z,7.17
2017-11-11T00:43:18.653Z,7.18
2017-11-11T00:43:59.232Z,7.15
2017-11-11T00:44:39.847Z,7.18
2017-11-11T00:45:20.466Z,7.2
2017-11-11T00:46:01.047Z,7.24
2017-11-11T00:46:41.640Z,7.25
2017-11-11T00:47:22.228Z,7.18
2017-11-11T00:48:02.838Z,7.18
2017-11-11T00:48:43.423Z,7.15
2017-11-11T00:49:24.019Z,7.2
2017-11-11T00:50:04.635Z,7.18
2017-11-11T00:50:45.238Z,7.24
2017-11-11T00:51:25.842Z,7.15
2017-11-11T00:52:06.432Z,7.18
2017-11-11T00:52:47.007Z,7.18
2017-11-11T00:53:27.593Z,7.17
2017-11-11T00:54:08.191Z,7.15
2017-11-11T00:54:48.796Z,7.2
2017-11-11T00:55:29.413Z,7.14
2017-11-11T00:56:10.004Z,7.15
2017-11-11T00:56:50.621Z,7.15
2017-11-11T00:57:31.244Z,7.18
2017-11-11T00:58:11.865Z,7.11
2017-11-11T00:58:52.468Z,7.06
2017-11-11T00:59:33.056Z,7.06
2017-11-11T01:00:13.671Z,6.93
2017-11-11T01:00:54.254Z,6.99
2017-11-11T01:01:34.872Z,7.02
2017-11-11T01:02:15.459Z,6.97
2017-11-11T01:02:56.040Z,6.97
2017-11-11T01:03:36.651Z,7.02
2017-11-11T01:04:17.224Z,7
2017-11-11T01:04:57.803Z,7.02
2017-11-11T01:05:38.409Z,7.05
2017-11-11T01:06:19.033Z,7.02
2017-11-11T01:06:59.625Z,7.06
2017-11-11T01:07:40.226Z,7.05
2017-11-11T01:08:20.824Z,7.06
2017-11-11T01:09:01.390Z,7.05
2017-11-11T01:09:41.969Z,7.05
2017-11-11T01:10:22.529Z,7.06
2017-11-11T01:11:03.116Z,7.18
2017-11-11T01:11:43.691Z,7.2
2017-11-11T01:12:24.292Z,7.15
2017-11-11T01:13:04.908Z,7.15
2017-11-11T01:13:45.481Z,7.13
2017-11-11T01:14:26.066Z,7.14
2017-11-11T01:15:06.646Z,7.06
2017-11-11T01:15:47.192Z,7.1
2017-11-11T01:16:27.762Z,7.06
2017-11-11T01:17:08.338Z,7.02
2017-11-11T01:17:48.908Z,7.03
2017-11-11T01:18:29.496Z,7.07
2017-11-11T01:19:10.052Z,6.99
2017-11-11T01:19:50.612Z,6.99
2017-11-11T01:20:31.181Z,7.05
2017-11-11T01:21:11.736Z,7.03
2017-11-11T01:21:52.315Z,7.1
2017-11-11T01:22:32.890Z,7.02
2017-11-11T01:23:13.450Z,6.95
2017-11-11T01:23:54.025Z,6.99
2017-11-11T01:24:34.645Z,7.05
2017-11-11T01:25:15.231Z,6.95
2017-11-11T01:25:55.789Z,7
2017-11-11T01:26:36.355Z,7.02
2017-11-11T01:27:16.916Z,6.97
2017-11-11T01:27:57.498Z,7.07
2017-11-11T01:28:38.095Z,7.07
2017-11-11T01:29:18.671Z,7.05
2017-11-11T01:29:59.224Z,7.11
2017-11-11T01:30:39.793Z,7.1
2017-11-11T01:31:20.385Z,7.03
2017-11-11T01:32:00.936Z,7.05
2017-11-11T01:32:41.522Z,7
2017-11-11T01:33:22.081Z,6.99
2017-11-11T01:34:02.672Z,6.97
2017-11-11T01:34:43.242Z,7.02
2017-11-11T01:35:23.854Z,6.99
2017-11-11T01:36:04.442Z,6.96
2017-11-11T01:36:45.018Z,7.02
2017-11-11T01:37:25.585Z,7.03
2017-11-11T01:38:06.161Z,7
2017-11-11T01:38:46.739Z,6.96
2017-11-11T01:39:27.298Z,6.97
2017-11-11T01:40:07.868Z,6.99
2017-11-11T01:40:48.436Z,7
2017-11-11T01:41:29.002Z,7
2017-11-11T01:42:09.567Z,7.03
2017-11-11T01:42:50.218Z,6.97
2017-11-11T01:43:31.041Z,6.97
2017-11-11T01:44:11.622Z,7.02
2017-11-11T01:44:52.173Z,7
2017-11-11T01:45:32.741Z,7.07
2017-11-11T01:46:13.313Z,6.87
2017-11-11T01:46:53.901Z,6.93
2017-11-11T01:47:34.480Z,6.93
2017-11-11T01:48:15.072Z,6.95
2017-11-11T01:48:55.641Z,6.88
2017-11-11T01:49:36.200Z,6.89
2017-11-11T01:50:16.787Z,6.84
2017-11-11T01:50:57.344Z,6.84
2017-11-11T01:51:37.943Z,6.88
2017-11-11T01:52:18.508Z,6.82
2017-11-11T01:52:59.090Z,6.85
2017-11-11T01:53:39.698Z,6.87
2017-11-11T01:54:20.282Z,6.82
2017-11-11T01:55:00.841Z,6.81
2017-11-11T01:55:41.432Z,6.82
2017-11-11T01:56:22.008Z,6.89
2017-11-11T01:57:02.605Z,6.88
2017-11-11T01:57:43.179Z,6.85
2017-11-11T01:58:23.756Z,6.85
2017-11-11T01:59:04.354Z,6.82
2017-11-11T01:59:44.945Z,6.82
2017-11-11T02:00:25.554Z,6.84
2017-11-11T02:01:06.106Z,6.82
2017-11-11T02:01:46.692Z,6.85
2017-11-11T02:02:27.263Z,6.88
2017-11-11T02:03:07.852Z,6.88
2017-11-11T02:03:48.436Z,6.87
2017-11-11T02:04:29.012Z,6.93
2017-11-11T02:05:09.584Z,6.87
2017-11-11T02:05:50.171Z,6.85
2017-11-11T02:06:30.737Z,6.89
2017-11-11T02:07:11.327Z,6.92
2017-11-11T02:07:51.913Z,6.85
2017-11-11T02:08:32.487Z,6.92
2017-11-11T02:09:13.046Z,6.84
2017-11-11T02:09:53.668Z,6.88
2017-11-11T02:10:34.243Z,6.87
2017-11-11T02:11:14.825Z,6.89
2017-11-11T02:11:55.426Z,6.82
2017-11-11T02:12:36.010Z,6.92
2017-11-11T02:13:16.581Z,6.85
2017-11-11T02:13:57.174Z,6.92
2017-11-11T02:14:37.814Z,6.87
2017-11-11T02:15:18.423Z,6.85
2017-11-11T02:15:59.047Z,6.85
2017-11-11T02:16:39.622Z,6.92
2017-11-11T02:17:20.211Z,6.87
2017-11-11T02:18:00.787Z,6.85
2017-11-11T02:18:41.398Z,6.93
2017-11-11T02:19:22.025Z,6.87
2017-11-11T02:20:02.622Z,6.88
2017-11-11T02:20:43.171Z,6.85
2017-11-11T02:21:23.762Z,6.85
2017-11-11T02:22:04.320Z,6.95
2017-11-11T02:22:44.934Z,6.88
2017-11-11T02:23:25.497Z,6.95
2017-11-11T02:24:06.062Z,6.84
2017-11-11T02:24:46.671Z,6.88
2017-11-11T02:25:27.247Z,6.88
2017-11-11T02:26:07.843Z,6.88
2017-11-11T02:26:48.482Z,6.88
2017-11-11T02:27:29.041Z,6.82
2017-11-11T02:28:09.684Z,6.79
2017-11-11T02:28:50.256Z,6.85
2017-11-11T02:29:30.821Z,6.77
2017-11-11T02:30:11.462Z,6.75
2017-11-11T02:30:52.102Z,6.79
2017-11-11T02:31:32.632Z,6.75
2017-11-11T02:32:13.213Z,6.69
2017-11-11T02:32:53.829Z,6.78
2017-11-11T02:33:34.400Z,6.72
2017-11-11T02:34:14.964Z,6.75
2017-11-11T02:34:55.558Z,6.67
2017-11-11T02:35:36.118Z,6.69
2017-11-11T02:36:16.739Z,6.67
2017-11-11T02:36:57.312Z,6.7
2017-11-11T02:37:37.914Z,6.78
2017-11-11T02:38:18.487Z,6.77
2017-11-11T02:38:59.052Z,6.69
2017-11-11T02:39:39.628Z,6.7
2017-11-11T02:40:20.231Z,6.67
2017-11-11T02:41:00.817Z,6.7
2017-11-11T02:41:41.394Z,6.62
2017-11-11T02:42:21.995Z,6.66
2017-11-11T02:43:02.589Z,6.7
2017-11-11T02:43:43.170Z,6.72
2017-11-11T02:44:23.723Z,6.6
2017-11-11T02:45:04.392Z,6.57
2017-11-11T02:45:44.964Z,6.6
2017-11-11T02:46:25.538Z,6.6
2017-11-11T02:47:06.167Z,6.63
2017-11-11T02:47:46.755Z,6.57
2017-11-11T02:48:27.316Z,6.62
2017-11-11T02:49:07.879Z,6.6
2017-11-11T02:49:48.453Z,6.6
2017-11-11T02:50:29.031Z,6.62
2017-11-11T02:51:09.595Z,6.63
2017-11-11T02:51:50.184Z,6.62
2017-11-11T02:52:30.762Z,6.57
2017-11-11T02:53:11.331Z,6.64
2017-11-11T02:53:51.906Z,6.72
2017-11-11T02:54:32.497Z,6.72
2017-11-11T02:55:13.077Z,6.69
2017-11-11T02:55:53.676Z,6.63
2017-11-11T02:56:34.295Z,6.7
2017-11-11T02:57:14.904Z,6.69
2017-11-11T02:57:55.477Z,6.72
2017-11-11T02:58:36.100Z,6.75
2017-11-11T02:59:16.680Z,6.74
2017-11-11T02:59:57.316Z,6.75
2017-11-11T03:00:37.884Z,6.77
2017-11-11T03:01:18.489Z,6.77
2017-11-11T03:01:59.068Z,6.69
2017-11-11T03:02:39.660Z,6.77
2017-11-11T03:03:20.255Z,6.75
2017-11-11T03:04:00.846Z,6.7
2017-11-11T03:04:41.458Z,6.78
2017-11-11T03:05:22.048Z,6.7
2017-11-11T03:06:02.613Z,6.72
2017-11-11T03:06:43.237Z,6.79
2017-11-11T03:07:23.810Z,6.81
2017-11-11T03:08:04.390Z,6.7
2017-11-11T03:08:44.972Z,6.64
2017-11-11T03:09:25.556Z,6.72
2017-11-11T03:10:06.148Z,6.7
2017-11-11T03:10:46.743Z,6.67
2017-11-11T03:11:27.331Z,6.67
2017-11-11T03:12:07.916Z,6.66
2017-11-11T03:12:48.487Z,6.69
2017-11-11T03:13:29.060Z,6.64
2017-11-11T03:14:09.665Z,6.6
2017-11-11T03:14:50.212Z,6.63
2017-11-11T03:15:30.792Z,6.62
2017-11-11T03:16:11.392Z,6.6
2017-11-11T03:16:51.998Z,6.63
2017-11-11T03:17:32.578Z,6.6
2017-11-11T03:18:13.176Z,6.66
2017-11-11T03:18:53.738Z,6.57
2017-11-11T03:19:34.346Z,6.64
2017-11-11T03:20:14.928Z,6.7
2017-11-11T03:20:55.515Z,6.59
2017-11-11T03:21:36.089Z,6.52
2017-11-11T03:22:16.673Z,6.54
2017-11-11T03:22:57.236Z,6.66
2017-11-11T03:23:37.811Z,6.6
2017-11-11T03:24:18.395Z,6.63
2017-11-11T03:24:58.974Z,6.64
2017-11-11T03:25:39.549Z,6.62
2017-11-11T03:26:20.138Z,6.64
2017-11-11T03:27:00.719Z,6.64
2017-11-11T03:27:41.312Z,6.63
2017-11-11T03:28:21.883Z,6.52
2017-11-11T03:29:02.478Z,6.62
2017-11-11T03:29:43.069Z,6.57
2017-11-11T03:30:23.683Z,6.62
2017-11-11T03:31:04.248Z,6.66
2017-11-11T03:31:44.821Z,6.72
2017-11-11T03:32:25.428Z,6.69
2017-11-11T03:33:06.022Z,6.74
2017-11-11T03:33:46.612Z,6.57
2017-11-11T03:34:27.195Z,6.7
2017-11-11T03:35:07.798Z,6.64
2017-11-11T03:35:48.359Z,6.72
2017-11-11T03:36:28.951Z,6.75
2017-11-11T03:37:09.538Z,6.77
2017-11-11T03:37:50.120Z,6.75
2017-11-11T03:38:30.697Z,6.74
2017-11-11T03:39:11.387Z,6.74
2017-11-11T03:39:51.980Z,6.67
2017-11-11T03:40:32.563Z,6.7
2017-11-11T03:41:13.130Z,6.74
2017-11-11T03:41:53.705Z,6.7
2017-11-11T03:42:34.281Z,6.66
2017-11-11T03:43:14.854Z,6.74
2017-11-11T03:43:55.440Z,6.6
2017-11-11T03:44:36.036Z,6.7
2017-11-11T03:45:16.642Z,6.75
2017-11-11T03:45:57.273Z,6.72
2017-11-11T03:46:37.869Z,6.59
2017-11-11T03:47:18.454Z,6.7
2017-11-11T03:47:59.039Z,6.7
2017-11-11T03:48:39.662Z,6.64
2017-11-11T03:49:20.238Z,6.62
2017-11-11T03:50:00.829Z,6.6
2017-11-11T03:50:41.399Z,6.66
2017-11-11T03:51:21.974Z,6.69
2017-11-11T03:52:02.556Z,6.7
2017-11-11T03:52:43.129Z,6.7
2017-11-11T03:53:23.709Z,6.69
2017-11-11T03:54:04.321Z,6.6
2017-11-11T03:54:44.899Z,6.72
2017-11-11T03:55:25.497Z,6.6
2017-11-11T03:56:06.090Z,6.67
2017-11-11T03:56:46.685Z,6.67
2017-11-11T03:57:27.295Z,6.7
2017-11-11T03:58:07.883Z,6.7
2017-11-11T03:58:48.485Z,6.66
2017-11-11T03:59:29.101Z,6.77
2017-11-11T04:00:09.694Z,6.59
2017-11-11T04:00:50.324Z,6.72
2017-11-11T04:01:30.899Z,6.7
2017-11-11T04:02:11.503Z,6.74
2017-11-11T04:02:52.124Z,6.64
2017-11-11T04:03:32.705Z,6.67
2017-11-11T04:04:13.323Z,6.67
2017-11-11T04:04:53.929Z,6.62
2017-11-11T04:05:34.472Z,6.59
2017-11-11T04:06:15.085Z,6.6
2017-11-11T04:06:55.659Z,6.63
2017-11-11T04:07:36.258Z,6.6
2017-11-11T04:08:16.874Z,6.62
2017-11-11T04:08:57.488Z,6.72
2017-11-11T04:09:38.109Z,6.69
2017-11-11T04:10:18.689Z,6.75
2017-11-11T04:10:59.288Z,6.75
2017-11-11T04:11:39.910Z,6.67
2017-11-11T04:12:20.503Z,6.74
2017-11-11T04:13:01.085Z,6.69
2017-11-11T04:13:41.712Z,6.69
2017-11-11T04:14:22.301Z,6.69
2017-11-11T04:15:02.904Z,6.81
2017-11-11T04:15:43.506Z,6.77
2017-11-11T04:16:24.087Z,6.7
2017-11-11T04:17:04.669Z,6.74
2017-11-11T04:17:45.280Z,6.75
2017-11-11T04:18:25.895Z,6.67
2017-11-11T04:19:06.493Z,6.67
2017-11-11T04:19:47.091Z,6.78
2017-11-11T04:20:27.692Z,6.67
2017-11-11T04:21:08.303Z,6.69
2017-11-11T04:21:48.911Z,6.69
2017-11-11T04:22:29.490Z,6.75
2017-11-11T04:23:10.080Z,6.78
2017-11-11T04:23:50.714Z,6.69
2017-11-11T04:24:31.280Z,6.7
2017-11-11T04:25:11.878Z,6.67
2017-11-11T04:25:52.478Z,6.75
2017-11-11T04:26:33.060Z,6.7
2017-11-11T04:27:13.647Z,6.75
2017-11-11T04:27:54.264Z,6.75
2017-11-11T04:28:34.842Z,6.77
2017-11-11T04:29:15.461Z,6.7
2017-11-11T04:29:56.063Z,6.75
2017-11-11T04:30:36.655Z,6.75
2017-11-11T04:31:17.250Z,6.79
2017-11-11T04:31:57.872Z,6.75
2017-11-11T04:32:38.495Z,6.7
2017-11-11T04:33:19.094Z,6.67
2017-11-11T04:33:59.694Z,6.69
2017-11-11T04:34:40.277Z,6.66
2017-11-11T04:35:20.861Z,6.81
2017-11-11T04:36:01.460Z,6.77
2017-11-11T04:36:42.059Z,6.74
2017-11-11T04:37:22.637Z,6.75
2017-11-11T04:38:03.226Z,6.72
2017-11-11T04:38:43.807Z,6.72
2017-11-11T04:39:24.395Z,6.69
2017-11-11T04:40:04.967Z,6.74
2017-11-11T04:40:45.577Z,6.75
2017-11-11T04:41:26.187Z,6.7
2017-11-11T04:42:06.807Z,6.84
2017-11-11T04:42:47.358Z,6.74
2017-11-11T04:43:27.948Z,6.74
2017-11-11T04:44:08.550Z,6.72
2017-11-11T04:44:49.179Z,6.74
2017-11-11T04:45:29.760Z,6.79
2017-11-11T04:46:10.374Z,6.7
2017-11-11T04:46:50.966Z,6.84
2017-11-11T04:47:31.580Z,6.81
2017-11-11T04:48:12.197Z,6.77
2017-11-11T04:48:52.911Z,6.74
2017-11-11T04:49:33.484Z,6.74
2017-11-11T04:50:14.175Z,6.7
2017-11-11T04:50:54.697Z,6.7
2017-11-11T04:51:35.319Z,6.74
2017-11-11T04:52:15.898Z,6.78
2017-11-11T04:52:56.485Z,6.64
2017-11-11T04:53:37.062Z,6.75
2017-11-11T04:54:17.653Z,6.72
2017-11-11T04:54:58.249Z,6.72
2017-11-11T04:55:38.845Z,6.67
2017-11-11T04:56:19.463Z,6.7
2017-11-11T04:57:00.043Z,6.77
2017-11-11T04:57:40.628Z,6.72
2017-11-11T04:58:21.214Z,6.74
2017-11-11T04:59:01.829Z,6.74
2017-11-11T04:59:42.440Z,6.69
2017-11-11T05:00:23.014Z,6.67
2017-11-11T05:01:03.606Z,6.7
2017-11-11T05:01:44.197Z,6.7
2017-11-11T05:02:24.781Z,6.72
2017-11-11T05:03:05.367Z,6.78
2017-11-11T05:03:45.916Z,6.74
2017-11-11T05:04:26.520Z,6.7
2017-11-11T05:05:07.133Z,6.75
2017-11-11T05:05:47.702Z,6.74
2017-11-11T05:06:28.311Z,6.69
2017-11-11T05:07:08.925Z,6.81
2017-11-11T05:07:49.528Z,6.74
2017-11-11T05:08:30.113Z,6.75
2017-11-11T05:09:10.690Z,6.72
2017-11-11T05:09:51.269Z,6.72
2017-11-11T05:10:31.866Z,6.7
2017-11-11T05:11:12.449Z,6.74
2017-11-11T05:11:53.032Z,6.7
2017-11-11T05:12:33.625Z,6.74
2017-11-11T05:13:14.210Z,6.72
2017-11-11T05:13:54.804Z,6.66
2017-11-11T05:14:35.383Z,6.74
2017-11-11T05:15:15.962Z,6.74
2017-11-11T05:15:56.578Z,6.81
2017-11-11T05:16:37.161Z,6.82
2017-11-11T05:17:17.755Z,6.89
2017-11-11T05:17:58.323Z,6.85
2017-11-11T05:18:39.027Z,6.82
2017-11-11T05:19:19.609Z,6.82
2017-11-11T05:20:00.193Z,6.82
2017-11-11T05:20:40.769Z,6.77
2017-11-11T05:21:21.375Z,6.79
2017-11-11T05:22:01.955Z,6.87
2017-11-11T05:22:42.528Z,6.77
2017-11-11T05:23:23.093Z,6.75
2017-11-11T05:24:03.675Z,6.82
2017-11-11T05:24:44.285Z,6.77
2017-11-11T05:25:24.888Z,6.72
2017-11-11T05:26:05.483Z,6.67
2017-11-11T05:26:46.076Z,6.81
2017-11-11T05:27:26.664Z,6.72
2017-11-11T05:28:07.249Z,6.69
2017-11-11T05:28:47.830Z,6.74
2017-11-11T05:29:28.410Z,6.7
2017-11-11T05:30:09.011Z,6.69
2017-11-11T05:30:49.603Z,6.72
2017-11-11T05:31:30.204Z,6.78
2017-11-11T05:32:10.801Z,6.74
2017-11-11T05:32:51.351Z,6.74
2017-11-11T05:33:31.933Z,6.72
2017-11-11T05:34:12.510Z,6.72
2017-11-11T05:34:53.107Z,6.77
2017-11-11T05:35:33.678Z,6.75
2017-11-11T05:36:14.244Z,6.69
2017-11-11T05:36:54.816Z,6.7
2017-11-11T05:37:35.407Z,6.69
2017-11-11T05:38:16.010Z,6.67
2017-11-11T05:38:56.599Z,6.77
2017-11-11T05:39:37.207Z,6.74
2017-11-11T05:40:17.827Z,6.69
2017-11-11T05:40:58.425Z,6.69
2017-11-11T05:41:39.000Z,6.69
2017-11-11T05:42:19.597Z,6.67
2017-11-11T05:43:00.203Z,6.75
2017-11-11T05:43:40.824Z,6.74
2017-11-11T05:44:21.407Z,6.7
2017-11-11T05:45:01.992Z,6.79
2017-11-11T05:45:42.587Z,6.72
2017-11-11T05:46:23.168Z,6.66
2017-11-11T05:47:03.750Z,6.7
2017-11-11T05:47:44.339Z,6.67
2017-11-11T05:48:24.918Z,6.74
2017-11-11T05:49:05.558Z,6.74
2017-11-11T05:49:46.139Z,6.74
2017-11-11T05:50:26.732Z,6.75
2017-11-11T05:51:07.340Z,6.74
2017-11-11T05:51:47.920Z,6.69
2017-11-11T05:52:28.545Z,6.67
2017-11-11T05:53:09.125Z,6.72
2017-11-11T05:53:49.731Z,6.7
2017-11-11T05:54:30.324Z,6.67
2017-11-11T05:55:10.949Z,6.72
2017-11-11T05:55:51.538Z,6.64
2017-11-11T05:56:32.136Z,6.64
2017-11-11T05:57:12.711Z,6.78
2017-11-11T05:57:53.280Z,6.67
2017-11-11T05:58:33.853Z,6.74
2017-11-11T05:59:14.438Z,6.74
2017-11-11T05:59:55.076Z,6.81
2017-11-11T06:00:35.654Z,6.72
2017-11-11T06:01:16.256Z,6.74
2017-11-11T06:01:56.837Z,6.69
2017-11-11T06:02:37.441Z,6.72
2017-11-11T06:03:18.018Z,6.69
2017-11-11T06:03:58.632Z,6.72
2017-11-11T06:04:39.230Z,6.72
2017-11-11T06:05:19.801Z,6.7
2017-11-11T06:06:00.384Z,6.7
2017-11-11T06:06:40.973Z,6.67
2017-11-11T06:07:21.552Z,6.69
2017-11-11T06:08:02.154Z,6.75
2017-11-11T06:08:42.723Z,6.72
2017-11-11T06:09:23.305Z,6.7
2017-11-11T06:10:03.905Z,6.67
2017-11-11T06:10:44.509Z,6.69
2017-11-11T06:11:25.132Z,6.74
2017-11-11T06:12:05.726Z,6.6
2017-11-11T06:12:46.309Z,6.67
2017-11-11T06:13:26.906Z,6.59
2017-11-11T06:14:07.519Z,6.64
2017-11-11T06:14:48.090Z,6.59
2017-11-11T06:15:28.673Z,6.6
2017-11-11T06:16:09.281Z,6.62
2017-11-11T06:16:49.876Z,6.56
2017-11-11T06:17:30.503Z,6.57
2017-11-11T06:18:11.118Z,6.56
2017-11-11T06:18:51.688Z,6.62
2017-11-11T06:19:32.277Z,6.52
2017-11-11T06:20:12.863Z,6.59
2017-11-11T06:20:53.455Z,6.59
2017-11-11T06:21:34.095Z,6.54
2017-11-11T06:22:14.690Z,6.56
2017-11-11T06:22:55.275Z,6.6
2017-11-11T06:23:35.848Z,6.62
2017-11-11T06:24:16.470Z,6.63
2017-11-11T06:24:57.036Z,6.64
2017-11-11T06:25:37.630Z,6.62
2017-11-11T06:26:18.237Z,6.63
2017-11-11T06:26:58.829Z,6.56
2017-11-11T06:27:39.542Z,6.56
2017-11-11T06:28:20.063Z,6.57
2017-11-11T06:29:00.675Z,6.64
2017-11-11T06:29:41.273Z,6.56
2017-11-11T06:30:21.864Z,6.56
2017-11-11T06:31:02.418Z,6.56
2017-11-11T06:31:42.980Z,6.6
2017-11-11T06:32:23.573Z,6.59
2017-11-11T06:33:04.197Z,6.56
2017-11-11T06:33:44.792Z,6.57
2017-11-11T06:34:25.381Z,6.57
2017-11-11T06:35:05.962Z,6.51
2017-11-11T06:35:46.543Z,6.49
2017-11-11T06:36:27.132Z,6.52
2017-11-11T06:37:07.725Z,6.46
2017-11-11T06:37:48.303Z,6.46
2017-11-11T06:38:28.927Z,6.44
2017-11-11T06:39:09.507Z,6.49
2017-11-11T06:39:50.090Z,6.52
2017-11-11T06:40:30.669Z,6.48
2017-11-11T06:41:11.244Z,6.49
2017-11-11T06:41:51.813Z,6.48
2017-11-11T06:42:32.411Z,6.44
2017-11-11T06:43:13.007Z,6.44
2017-11-11T06:43:53.600Z,6.44
2017-11-11T06:44:34.250Z,6.39
2017-11-11T06:45:14.832Z,6.41
2017-11-11T06:45:55.405Z,6.41
2017-11-11T06:46:35.982Z,6.44
2017-11-11T06:47:16.573Z,6.36
2017-11-11T06:47:57.140Z,6.38
2017-11-11T06:48:37.742Z,6.36
2017-11-11T06:49:18.321Z,6.31
2017-11-11T06:49:58.913Z,6.31
2017-11-11T06:50:39.511Z,6.36
2017-11-11T06:51:20.109Z,6.36
2017-11-11T06:52:00.700Z,6.39
2017-11-11T06:52:41.273Z,6.38
2017-11-11T06:53:21.878Z,6.28
2017-11-11T06:54:02.441Z,6.31
2017-11-11T06:54:43.056Z,6.45
2017-11-11T06:55:23.673Z,6.38
2017-11-11T06:56:04.244Z,6.38
2017-11-11T06:56:44.817Z,6.41
2017-11-11T06:57:25.395Z,6.33
2017-11-11T06:58:05.982Z,6.42
2017-11-11T06:58:46.559Z,6.44
2017-11-11T06:59:27.175Z,6.39
2017-11-11T07:00:07.765Z,6.28
2017-11-11T07:00:48.331Z,6.33
2017-11-11T07:01:28.940Z,6.24
2017-11-11T07:02:09.596Z,6.28
2017-11-11T07:02:50.222Z,6.28
2017-11-11T07:03:30.928Z,6.35
2017-11-11T07:04:11.566Z,6.38
2017-11-11T07:04:52.171Z,6.31
2017-11-11T07:05:32.759Z,6.3
2017-11-11T07:06:13.359Z,6.26
2017-11-11T07:06:53.943Z,6.3
2017-11-11T07:07:34.534Z,6.22
2017-11-11T07:08:15.112Z,6.28
2017-11-11T07:08:55.717Z,6.26
2017-11-11T07:09:36.299Z,6.27
2017-11-11T07:10:16.978Z,6.24
2017-11-11T07:10:57.573Z,6.26
2017-11-11T07:11:38.138Z,6.24
2017-11-11T07:12:18.827Z,6.17
2017-11-11T07:12:59.404Z,6.16
2017-11-11T07:13:40.715Z,6.14
2017-11-11T07:14:21.286Z,6.22
2017-11-11T07:15:01.904Z,6.2
2017-11-11T07:15:42.710Z,6.2
2017-11-11T07:16:23.274Z,6.17
2017-11-11T07:17:03.844Z,6.11
2017-11-11T07:17:44.425Z,6.11
2017-11-11T07:18:25.018Z,6.09
2017-11-11T07:19:05.607Z,6.11
2017-11-11T07:19:46.207Z,6.17
2017-11-11T07:20:26.878Z,6.2
2017-11-11T07:21:07.478Z,6.09
2017-11-11T07:21:48.077Z,6.16
2017-11-11T07:22:28.734Z,6.16
2017-11-11T07:23:09.408Z,6.14
2017-11-11T07:23:50.179Z,6.24
2017-11-11T07:24:30.784Z,6.19
2017-11-11T07:25:11.433Z,6.14
2017-11-11T07:25:51.993Z,6.08
2017-11-11T07:26:32.621Z,6.14
2017-11-11T07:27:14.374Z,6.09
2017-11-11T07:27:54.959Z,6.14
2017-11-11T07:28:35.569Z,6.17
2017-11-11T07:29:16.165Z,6.16
2017-11-11T07:29:56.874Z,6.16
2017-11-11T07:30:37.457Z,6.22
2017-11-11T07:31:18.132Z,6.12
2017-11-11T07:31:59.224Z,6.12
2017-11-11T07:32:39.791Z,6.09
2017-11-11T07:33:20.395Z,6.17
2017-11-11T07:34:01.052Z,6.16
2017-11-11T07:34:41.612Z,6.26
2017-11-11T07:35:22.529Z,6.27
2017-11-11T07:36:03.211Z,6.3
2017-11-11T07:36:43.783Z,6.35
2017-11-11T07:37:24.388Z,6.26
2017-11-11T07:38:05.025Z,6.3
2017-11-11T07:38:45.626Z,6.33
2017-11-11T07:39:26.269Z,6.39
2017-11-11T07:40:06.923Z,6.41
2017-11-11T07:40:47.629Z,6.38
2017-11-11T07:41:28.503Z,6.42
2017-11-11T07:42:09.106Z,6.42
2017-11-11T07:42:49.680Z,6.39
2017-11-11T07:43:30.262Z,6.41
2017-11-11T07:44:10.848Z,6.48
2017-11-11T07:44:51.428Z,6.64
2017-11-11T07:45:32.019Z,6.78
2017-11-11T07:46:12.651Z,6.97
2017-11-11T07:46:53.225Z,7.14
2017-11-11T07:47:33.838Z,7.21
2017-11-11T07:48:14.426Z,7.32
2017-11-11T07:48:54.998Z,7.47
2017-11-11T07:49:35.596Z,7.66
2017-11-11T07:50:16.179Z,7.79
2017-11-11T07:50:56.788Z,7.87
2017-11-11T07:51:37.375Z,8
2017-11-11T07:52:17.965Z,7.95
2017-11-11T07:52:58.580Z,7.97
2017-11-11T07:53:39.160Z,8.05
2017-11-11T07:54:19.746Z,8.01
2017-11-11T07:55:00.347Z,7.95
2017-11-11T07:55:40.930Z,8.06
2017-11-11T07:56:21.527Z,8.08
2017-11-11T07:57:02.129Z,8.06
2017-11-11T07:57:42.711Z,7.98
2017-11-11T07:58:23.314Z,8.13
2017-11-11T07:59:03.971Z,8.13
2017-11-11T07:59:44.564Z,8.2
2017-11-11T08:00:25.143Z,8.36
2017-11-11T08:01:05.968Z,8.34
2017-11-11T08:01:46.621Z,8.38
2017-11-11T08:02:27.243Z,8.53
2017-11-11T08:03:07.863Z,8.63
2017-11-11T08:03:48.464Z,8.74
2017-11-11T08:04:29.043Z,8.87
2017-11-11T08:05:09.653Z,8.94
2017-11-11T08:05:50.251Z,8.95
2017-11-11T08:06:30.896Z,9.13
2017-11-11T08:07:11.516Z,9.14
2017-11-11T08:07:52.138Z,9.18
2017-11-11T08:08:32.722Z,9.29
2017-11-11T08:09:13.321Z,9.39
2017-11-11T08:09:53.927Z,9.37
2017-11-11T08:10:35.085Z,9.46
2017-11-11T08:11:15.792Z,9.44
2017-11-11T08:11:56.385Z,9.47
2017-11-11T08:12:37.030Z,9.54
2017-11-11T08:13:17.718Z,9.48
2017-11-11T08:13:59.735Z,9.46
2017-11-11T08:14:40.844Z,9.36
2017-11-11T08:15:21.876Z,9.37
2017-11-11T08:16:02.539Z,9.36
2017-11-11T08:16:43.187Z,9.41
2017-11-11T08:17:23.793Z,9.47
2017-11-11T08:18:04.382Z,9.34
2017-11-11T08:18:44.970Z,9.4
2017-11-11T08:19:25.719Z,9.23
2017-11-11T08:20:06.278Z,9.23
2017-11-11T08:20:47.090Z,9.1
2017-11-11T08:21:27.694Z,8.88
2017-11-11T08:22:09.201Z,8.89
2017-11-11T08:22:50.184Z,8.66
2017-11-11T08:23:31.311Z,8.61
2017-11-11T08:24:12.369Z,8.36
2017-11-11T08:24:53.059Z,8.37
2017-11-11T08:25:34.058Z,8.31
2017-11-11T08:26:14.760Z,8.27
2017-11-11T08:26:55.382Z,8.12
2017-11-11T08:27:36.045Z,8.06
2017-11-11T08:28:16.643Z,7.95
2017-11-11T08:28:57.314Z,7.93
2017-11-11T08:29:38.024Z,7.91
2017-11-11T08:30:18.620Z,7.73
2017-11-11T08:30:59.215Z,7.69
2017-11-11T08:31:39.800Z,7.66
2017-11-11T08:32:20.386Z,7.6
2017-11-11T08:33:00.995Z,7.6
2017-11-11T08:33:41.590Z,7.48
2017-11-11T08:34:22.178Z,7.54
2017-11-11T08:35:02.951Z,7.47
2017-11-11T08:35:43.535Z,7.43
2017-11-11T08:36:24.116Z,7.42
2017-11-11T08:37:04.701Z,7.39
2017-11-11T08:37:45.300Z,7.4
2017-11-11T08:38:26.180Z,7.36
2017-11-11T08:39:06.990Z,7.32
2017-11-11T08:39:48.292Z,7.38
2017-11-11T08:40:29.437Z,7.38
2017-11-11T08:41:10.494Z,7.32
2017-11-11T08:41:51.083Z,7.35
2017-11-11T08:42:31.640Z,7.36
2017-11-11T08:43:12.217Z,7.32
2017-11-11T08:43:52.797Z,7.32
2017-11-11T08:44:33.471Z,7.21
2017-11-11T08:45:14.094Z,7.2
2017-11-11T08:45:54.692Z,7.25
2017-11-11T08:46:35.251Z,7.2
2017-11-11T08:47:15.832Z,7.32
2017-11-11T08:47:56.443Z,7.29
2017-11-11T08:48:37.029Z,7.18
2017-11-11T08:49:17.619Z,7.25
2017-11-11T08:49:58.208Z,7.24
2017-11-11T08:50:38.787Z,7.17
2017-11-11T08:51:19.370Z,7.15
2017-11-11T08:51:59.964Z,7.14
2017-11-11T08:52:40.617Z,7.23
2017-11-11T08:53:23.214Z,7.15
2017-11-11T08:54:03.826Z,7.17
2017-11-11T08:54:44.764Z,7.15
2017-11-11T08:55:25.380Z,7.15
2017-11-11T08:56:05.919Z,7.2
2017-11-11T08:56:46.504Z,7.15
2017-11-11T08:57:27.101Z,7.18
2017-11-11T08:58:07.699Z,7.13
2017-11-11T08:58:48.277Z,7.13
2017-11-11T08:59:28.870Z,7.17
2017-11-11T09:00:09.467Z,7.18
2017-11-11T09:00:50.049Z,7.17
2017-11-11T09:01:30.637Z,7.14
2017-11-11T09:02:11.212Z,7.18
2017-11-11T09:02:51.798Z,7.15
2017-11-11T09:03:32.400Z,7.18